Relevés horaires Florennes (Belgique)


Relevés horaires à Florennes - Samedi 28 Janv. 2023
Heure UTC1 Température [°C] Vent [km/h] Hum. [%] Pres.4 [hPa] Visi. [Km] Nébu. [octa] Préc.5 [mm] Cond.
2m. Res. Ros. Dir.2 Vit. Moy. Raf.3
23:00 -3.5 -3.5 -4.8 NNO 1.9 -- 1.9 91 1032(-0.5/3h) 7 -- -- --
22:00 -2.1 -2.1 -4.4 NNO 1.9 -- 5.6 84 1031.5(-0.2/3h) 11 -- -- --
21:00 -1.7 -1.7 -4.5 NE 3.7 -- 7.4 81 1032(0.1/3h) 13 -- -- --
20:00 -1.8 -1.8 -3.5 NNO 1.9 -- 5.6 88 1032.4(1.1/3h) 11 -- -- --
19:00 -2.4 -2.4 -4.6 NNO 1.9 -- 3.7 85 1032(1.0/3h) 13 -- -- --
18:00 -1.8 -1.8 -4.1 NNO 1.9 -- 11.1 84 1031.7(1.1/3h) 15 -- -- --
17:00 -2.4 -2.4 -4.8 N 3.7 -- 5.6 84 1031.2(0.6/3h) 14 -- -- --
16:00 -0.7 -0.7 -4.1 N 3.7 -- 9.3 78 1030.5(-0.1/3h) 16 -- -- --
15:00 0.1 -1.7 -3.7 ENE 5.6 -- 11.1 76 1030.5(-0.5/3h) 15 -- -- --
14:00 -0.2 -2.8 -4.5 ENE 7.4 -- 11.1 73 1030.2(-0.9/3h) 19 -- -- --
13:00 0.0 -2.5 -3.0 NNE 7.4 -- 11.1 80 1030.5(-0.2/3h) 15 -- -- --
12:00 -0.2 -2.8 -3.6 N 7.4 -- 13.0 78 1031(0.6/3h) 14 -- -- --
11:00 -0.1 -2.7 -3.3 N 7.4 -- 13.0 79 1031.2(1.2/3h) 16 -- -- --
10:00 0.1 -2.4 -2.8 N 7.4 -- 11.1 81 1030.9(1.2/3h) 17 -- -- --
09:00 0.2 -2.3 -2.6 NNE 7.4 -- 11.1 81 1030.2(1.0/3h) 16 -- -- --
08:00 0.2 -2.3 -2.3 NE 7.4 -- 11.1 83 1029.9(0.6/3h) 15 -- -- --
07:00 0.4 -2.1 -1.7 N 7.4 -- 11.1 86 1029.5(0.6/3h) 13 -- -- --
06:00 0.6 -1.8 -1.4 N 7.4 -- 13.0 86 1029.2(0.6/3h) 12 -- -- --
05:00 0.9 -1.5 -1.3 NNE 7.4 -- 13.0 85 1029(0.7/3h) 12 -- -- --
04:00 1.0 -1.4 -1.4 NE 7.4 -- 13.0 84 1028.7(0.5/3h) 13 -- -- --
03:00 1.0 -1.4 -0.5 N 7.4 -- 11.1 90 1028.5(0.3/3h) 16 -- -- --
02:00 1.0 -0.7 -0.4 NNE 5.6 -- 9.3 90 1028.2(0.2/3h) 16 -- -- --
01:00 1.1 -0.6 -0.3 N 5.6 -- 11.1 90 1028.2(0.0/3h) 17 -- -- --
00:00 1.2 -1.1 -0.2 N 7.4 -- 13.0 90 1028(0.0/3h) 16 -- -- --

1 Coordinated Universal Time. Actuellement il est 05:00 locale et 03:00 UTC.

2 Le vent souffle depuis la direction indiquée vers la direction oposée.

3 Les rafales max. sont disponible 40 min après l'heure du relevé.

4 Pour les stations d'altitude (plus de 600m) le géopotentiel du niveau le plus proche de la pression obligatoire est indiqué.

5 Les stations disposant d'un diffuseur peuvent indiquer "trace". Cela signifie que des précipitations ont touchés le sol mais que la quantité est inférieure à 0.1 mm.

Récapitulatif de la journée
Température [°C] Vent [km/h] Ensoleillement4 [h] Precipitations totale5 [mm] Pression [Hpa]
Min1 Max.2 Moy.3 Max. Min Max.
0.6 0.8 0 13.0 0 h 0 min 0 1028.0 1032.4

1 Température minimale relevée entre 18:00 UTC la veille et 18:00 UTC le jour donné.

2 Température maximale relevée entre 06:00 UTC le jour donné et 06:00 UTC le lendemain.

3 Vent moyen de la journée basé sur les relevés horaires.

4 Ensoleillement en heures relevé entre 06:00 UTC la veille et 06:00 UTC le jour donné.

5 Précipitations totales tombées entre 06:00 UTC la jour donné et 06:00 UTC le lendemain.

Graphiques horaires